createdAt,value
2022-08-22T00:13:13.956Z,100.00
2022-08-22T00:18:47.028Z,100.00
2022-08-22T00:23:58.952Z,100.00
2022-08-22T00:29:09.628Z,100.00
2022-08-22T00:34:17.864Z,100.00
2022-08-22T00:39:41.189Z,100.00
2022-08-22T00:45:04.987Z,100.00
2022-08-22T00:50:34.422Z,100.00
2022-08-22T00:55:58.204Z,100.00
2022-08-22T01:01:07.013Z,100.00
2022-08-22T01:11:59.276Z,100.00
2022-08-22T01:17:27.389Z,100.00
2022-08-22T01:22:48.292Z,100.00
2022-08-22T01:28:16.684Z,100.00
2022-08-22T01:33:56.985Z,100.00
2022-08-22T01:39:33.379Z,100.00
2022-08-22T01:44:59.089Z,100.00
2022-08-22T01:50:13.329Z,100.00
2022-08-22T01:55:26.489Z,100.00
2022-08-22T02:00:35.158Z,100.00
2022-08-22T02:05:49.086Z,100.00
2022-08-22T02:11:03.482Z,100.00
2022-08-22T02:16:15.044Z,100.00
2022-08-22T02:21:27.548Z,100.00
2022-08-22T02:27:04.374Z,100.00
2022-08-22T02:32:26.887Z,100.00
2022-08-22T02:37:48.968Z,100.00
2022-08-22T02:43:08.336Z,100.00
2022-08-22T02:48:32.752Z,100.00
2022-08-22T02:54:00.628Z,100.00
2022-08-22T02:59:24.861Z,100.00
2022-08-22T03:04:33.639Z,100.00
2022-08-22T03:09:56.874Z,100.00
2022-08-22T03:15:28.505Z,100.00
2022-08-22T03:21:15.199Z,100.00
2022-08-22T03:26:33.991Z,100.00
2022-08-22T03:31:36.968Z,100.00
2022-08-22T03:36:40.837Z,100.00
2022-08-22T03:42:23.213Z,100.00
2022-08-22T03:47:43.345Z,100.00
2022-08-22T03:53:18.701Z,100.00
2022-08-22T03:58:31.851Z,100.00
2022-08-22T04:03:59.105Z,100.00
2022-08-22T04:09:10.643Z,100.00
2022-08-22T04:14:30.005Z,100.00
2022-08-22T04:20:02.754Z,100.00
2022-08-22T04:25:23.949Z,100.00
2022-08-22T04:30:34.664Z,100.00
2022-08-22T04:35:55.573Z,100.00
2022-08-22T04:41:12.216Z,100.00
2022-08-22T04:46:39.083Z,100.00
2022-08-22T04:51:49.221Z,100.00
2022-08-22T04:57:17.623Z,100.00
2022-08-22T05:02:28.174Z,100.00
2022-08-22T05:07:41.716Z,100.00
2022-08-22T05:12:53.541Z,100.00
2022-08-22T05:18:05.399Z,100.00
2022-08-22T05:23:18.391Z,100.00
2022-08-22T05:28:41.108Z,100.00
2022-08-22T05:33:50.714Z,100.00
2022-08-22T06:20:49.922Z,100.00
2022-08-22T06:25:54.812Z,100.00
2022-08-22T06:30:59.603Z,100.00
2022-08-22T06:36:26.683Z,100.00
2022-08-22T06:41:33.772Z,100.00
2022-08-22T06:46:38.639Z,100.00
2022-08-22T06:51:42.064Z,99.94
2022-08-22T06:56:49.320Z,97.90
2022-08-22T07:02:01.466Z,96.39
2022-08-22T07:07:03.874Z,95.50
2022-08-22T07:12:19.695Z,93.42
2022-08-22T07:17:31.267Z,88.62
2022-08-22T07:22:37.725Z,84.84
2022-08-22T07:28:04.937Z,77.41
2022-08-22T07:33:32.149Z,80.81
2022-08-22T07:38:43.041Z,79.71
2022-08-22T07:43:49.973Z,79.21
2022-08-22T07:49:13.045Z,79.13
2022-08-22T07:54:22.947Z,76.66
2022-08-22T07:59:31.482Z,73.13
2022-08-22T08:04:40.009Z,73.35
2022-08-22T08:09:47.248Z,71.79
2022-08-22T08:14:53.778Z,73.63
2022-08-22T08:19:57.181Z,74.29
2022-08-22T08:25:01.011Z,73.93
2022-08-22T08:30:12.237Z,73.77
2022-08-22T08:35:20.772Z,72.18
2022-08-22T08:40:32.996Z,71.61
2022-08-22T08:45:41.703Z,69.56
2022-08-22T08:50:59.573Z,66.37
2022-08-22T08:56:42.802Z,63.77
2022-08-22T09:02:01.910Z,56.83
2022-08-22T09:07:28.437Z,55.63
2022-08-22T09:13:12.143Z,53.86
2022-08-22T09:18:42.375Z,50.69
2022-08-22T09:24:26.249Z,47.01
2022-08-22T09:29:54.456Z,45.28
2022-08-22T09:35:05.636Z,46.65
2022-08-22T09:40:16.993Z,45.28
2022-08-22T09:45:26.851Z,44.40
2022-08-22T09:51:13.528Z,45.39
2022-08-22T09:56:37.236Z,46.28
2022-08-22T10:02:14.290Z,47.72
2022-08-22T10:07:52.733Z,50.96
2022-08-22T10:13:43.140Z,56.29
2022-08-22T10:19:05.186Z,56.60
2022-08-22T10:24:46.135Z,51.20
2022-08-22T10:30:02.580Z,49.86
2022-08-22T10:35:33.977Z,51.12
2022-08-22T10:40:48.962Z,55.23
2022-08-22T10:46:12.692Z,55.41
2022-08-22T10:51:42.876Z,57.71
2022-08-22T10:57:03.782Z,61.21
2022-08-22T11:02:30.906Z,63.26
2022-08-22T11:08:01.357Z,66.66
2022-08-22T11:13:30.880Z,69.46
2022-08-22T11:19:15.318Z,73.17
2022-08-22T11:24:35.226Z,72.85
2022-08-22T11:29:59.271Z,72.62
2022-08-22T11:35:19.048Z,77.55
2022-08-22T11:40:30.909Z,86.27
2022-08-22T11:45:46.046Z,91.61
2022-08-22T11:50:56.495Z,95.58
2022-08-22T11:56:28.093Z,100.00
2022-08-22T12:02:05.246Z,100.00
2022-08-22T12:07:31.487Z,100.00
2022-08-22T12:12:48.836Z,100.00
2022-08-22T12:18:35.778Z,100.00
2022-08-22T12:24:11.293Z,100.00
2022-08-22T12:29:44.944Z,100.00
2022-08-22T12:35:30.224Z,98.85
2022-08-22T12:40:53.604Z,99.37
2022-08-22T12:46:18.431Z,99.98
2022-08-22T12:51:37.115Z,100.00
2022-08-22T12:57:00.558Z,100.00
2022-08-22T13:02:15.969Z,100.00
2022-08-22T13:07:25.868Z,100.00
2022-08-22T13:12:44.460Z,100.00
2022-08-22T13:55:24.009Z,100.00
2022-08-22T14:01:02.335Z,100.00
2022-08-22T14:06:35.367Z,100.00
2022-08-22T14:17:42.895Z,100.00
2022-08-22T14:23:03.867Z,100.00
2022-08-22T14:28:27.610Z,100.00
2022-08-22T14:33:51.752Z,100.00
2022-08-22T14:38:57.966Z,100.00
2022-08-22T14:44:09.659Z,100.00
2022-08-22T14:49:17.836Z,100.00
2022-08-22T14:54:22.979Z,100.00
2022-08-22T14:59:38.850Z,100.00
2022-08-22T15:04:45.740Z,100.00
2022-08-22T15:10:03.161Z,100.00
2022-08-22T15:15:33.117Z,100.00
2022-08-22T15:21:24.469Z,100.00
2022-08-22T15:26:34.549Z,100.00
2022-08-22T15:31:46.482Z,100.00
2022-08-22T15:37:07.786Z,100.00
2022-08-22T15:42:25.132Z,100.00
2022-08-22T15:47:38.794Z,100.00
2022-08-22T15:53:05.194Z,100.00
2022-08-22T15:58:20.121Z,100.00
2022-08-22T16:03:32.086Z,100.00
2022-08-22T16:08:37.398Z,100.00
2022-08-22T16:13:43.627Z,100.00
2022-08-22T16:18:49.157Z,100.00
2022-08-22T16:23:51.537Z,100.00
2022-08-22T16:29:00.222Z,100.00
2022-08-22T16:34:52.681Z,100.00
2022-08-22T16:39:58.902Z,100.00
2022-08-22T16:45:05.513Z,100.00
2022-08-22T16:50:19.902Z,100.00
2022-08-22T16:55:31.659Z,100.00
2022-08-22T17:00:37.197Z,100.00
2022-08-22T17:05:57.077Z,100.00
2022-08-22T17:11:14.189Z,100.00
2022-08-22T17:16:28.559Z,100.00
2022-08-22T17:21:51.824Z,100.00
2022-08-22T17:27:06.632Z,100.00
2022-08-22T17:32:27.372Z,100.00
2022-08-22T17:37:41.920Z,100.00
2022-08-22T17:43:14.236Z,100.00
2022-08-22T17:48:27.382Z,100.00
2022-08-22T17:53:46.388Z,100.00
2022-08-22T17:58:55.121Z,100.00
2022-08-22T18:04:01.204Z,100.00
2022-08-22T18:09:20.568Z,100.00
2022-08-22T18:14:36.293Z,100.00
2022-08-22T18:19:59.489Z,100.00
2022-08-22T18:25:06.477Z,100.00
2022-08-22T18:30:11.837Z,100.00
2022-08-22T18:35:27.359Z,100.00
2022-08-22T18:40:37.169Z,100.00
2022-08-22T18:45:51.924Z,100.00
2022-08-22T18:51:16.406Z,100.00
2022-08-22T18:56:48.908Z,100.00
2022-08-22T19:02:28.766Z,100.00
2022-08-22T19:07:55.904Z,100.00
2022-08-22T19:13:29.310Z,100.00
2022-08-22T19:18:56.087Z,100.00
2022-08-22T19:23:59.407Z,100.00
2022-08-22T19:29:17.407Z,100.00
2022-08-22T19:34:25.795Z,100.00
2022-08-22T19:39:40.403Z,100.00
2022-08-22T19:44:46.879Z,100.00
2022-08-22T19:49:55.109Z,100.00
2022-08-22T19:55:31.838Z,100.00
2022-08-22T20:00:54.216Z,100.00
2022-08-22T20:06:33.642Z,100.00
2022-08-22T20:11:57.836Z,100.00
2022-08-22T20:17:24.677Z,100.00
2022-08-22T20:22:29.736Z,100.00
2022-08-22T20:27:38.370Z,100.00
2022-08-22T20:33:21.690Z,100.00
2022-08-22T20:38:32.614Z,100.00
2022-08-22T20:44:12.722Z,100.00
2022-08-22T20:49:26.862Z,100.00
2022-08-22T20:54:33.530Z,100.00
2022-08-22T20:59:42.062Z,100.00
2022-08-22T21:05:09.577Z,100.00
2022-08-22T21:10:44.571Z,100.00
2022-08-22T21:15:50.961Z,100.00
2022-08-22T21:20:53.577Z,100.00
2022-08-22T21:25:59.501Z,100.00
2022-08-22T21:31:10.634Z,100.00
2022-08-22T21:36:17.834Z,100.00
2022-08-22T21:41:38.826Z,100.00
2022-08-22T21:46:41.362Z,100.00
2022-08-22T21:51:46.120Z,100.00
2022-08-22T21:56:50.236Z,100.00
2022-08-22T22:01:55.425Z,100.00
2022-08-22T22:06:58.224Z,100.00
2022-08-22T22:12:00.694Z,100.00
2022-08-22T22:17:02.827Z,100.00
2022-08-22T22:22:05.536Z,100.00
2022-08-22T22:27:11.696Z,100.00
2022-08-22T22:32:16.121Z,100.00
2022-08-22T22:37:18.563Z,100.00
2022-08-22T22:42:20.955Z,100.00
2022-08-22T22:47:31.508Z,100.00
2022-08-22T22:52:33.916Z,100.00
2022-08-22T22:57:42.877Z,100.00
2022-08-22T23:02:48.683Z,100.00
2022-08-22T23:07:51.017Z,100.00
2022-08-22T23:12:53.321Z,100.00
2022-08-22T23:17:55.784Z,100.00
2022-08-22T23:23:21.162Z,100.00
2022-08-22T23:28:23.454Z,100.00
2022-08-22T23:33:25.960Z,100.00
2022-08-22T23:38:28.564Z,100.00
2022-08-22T23:43:30.913Z,100.00
2022-08-22T23:48:33.258Z,100.00
2022-08-22T23:53:35.457Z,100.00
2022-08-22T23:58:37.921Z,100.00
